sensor_id;sensor_type;location;lat;lon;timestamp;temperature;humidity
25170;DHT22;13129;48.012;10.352;2023-05-07T15:56:19;20.60;87.10
25170;DHT22;13129;48.012;10.352;2023-05-07T15:58:45;19.90;87.90
25170;DHT22;13129;48.012;10.352;2023-05-07T16:01:12;19.70;88.20
25170;DHT22;13129;48.012;10.352;2023-05-07T16:03:38;19.70;88.90
25170;DHT22;13129;48.012;10.352;2023-05-07T16:06:05;19.60;89.30
25170;DHT22;13129;48.012;10.352;2023-05-07T16:08:31;19.50;89.30
25170;DHT22;13129;48.012;10.352;2023-05-07T16:10:58;19.40;89.50
25170;DHT22;13129;48.012;10.352;2023-05-07T16:13:24;19.30;90.10
25170;DHT22;13129;48.012;10.352;2023-05-07T16:15:55;19.20;90.60
25170;DHT22;13129;48.012;10.352;2023-05-07T16:18:22;19.10;90.90
25170;DHT22;13129;48.012;10.352;2023-05-07T16:20:48;19.00;91.20
25170;DHT22;13129;48.012;10.352;2023-05-07T16:23:14;18.90;91.50
25170;DHT22;13129;48.012;10.352;2023-05-07T16:25:39;18.80;91.70
25170;DHT22;13129;48.012;10.352;2023-05-07T16:28:05;18.70;91.90
25170;DHT22;13129;48.012;10.352;2023-05-07T16:30:32;18.50;92.30
25170;DHT22;13129;48.012;10.352;2023-05-07T16:32:57;18.40;92.60
25170;DHT22;13129;48.012;10.352;2023-05-07T16:35:23;18.30;93.00
25170;DHT22;13129;48.012;10.352;2023-05-07T16:37:49;18.20;93.30
25170;DHT22;13129;48.012;10.352;2023-05-07T16:40:14;18.00;93.40
25170;DHT22;13129;48.012;10.352;2023-05-07T16:42:41;18.00;93.50
25170;DHT22;13129;48.012;10.352;2023-05-07T16:45:07;17.90;93.50
25170;DHT22;13129;48.012;10.352;2023-05-07T16:47:33;17.80;93.70
25170;DHT22;13129;48.012;10.352;2023-05-07T16:49:59;17.80;94.10
25170;DHT22;13129;48.012;10.352;2023-05-07T16:52:26;17.70;94.30
25170;DHT22;13129;48.012;10.352;2023-05-07T16:54:52;17.60;94.40
25170;DHT22;13129;48.012;10.352;2023-05-07T16:57:23;17.50;94.70
25170;DHT22;13129;48.012;10.352;2023-05-07T16:59:51;17.40;94.80
25170;DHT22;13129;48.012;10.352;2023-05-07T17:02:17;17.30;95.00
25170;DHT22;13129;48.012;10.352;2023-05-07T17:04:43;17.30;95.20
25170;DHT22;13129;48.012;10.352;2023-05-07T17:07:08;17.30;95.40
25170;DHT22;13129;48.012;10.352;2023-05-07T17:09:34;17.20;95.70
25170;DHT22;13129;48.012;10.352;2023-05-07T17:12:00;17.10;95.90
25170;DHT22;13129;48.012;10.352;2023-05-07T17:14:47;17.10;96.40
25170;DHT22;13129;48.012;10.352;2023-05-07T17:17:12;17.10;97.00
25170;DHT22;13129;48.012;10.352;2023-05-07T17:19:38;17.00;97.30
25170;DHT22;13129;48.012;10.352;2023-05-07T17:22:04;16.90;97.40
25170;DHT22;13129;48.012;10.352;2023-05-07T17:24:29;16.70;97.20
25170;DHT22;13129;48.012;10.352;2023-05-07T17:26:55;16.40;97.70
25170;DHT22;13129;48.012;10.352;2023-05-07T17:29:21;16.20;98.10
25170;DHT22;13129;48.012;10.352;2023-05-07T17:31:46;16.00;98.80
25170;DHT22;13129;48.012;10.352;2023-05-07T17:34:13;15.90;99.90
25170;DHT22;13129;48.012;10.352;2023-05-07T17:36:39;15.80;99.90
25170;DHT22;13129;48.012;10.352;2023-05-07T17:39:05;15.80;99.90
25170;DHT22;13129;48.012;10.352;2023-05-07T17:41:34;15.60;99.90
25170;DHT22;13129;48.012;10.352;2023-05-07T17:44:00;15.40;99.90
25170;DHT22;13129;48.012;10.352;2023-05-07T17:46:26;15.10;99.90
25170;DHT22;13129;48.012;10.352;2023-05-07T17:48:51;14.90;99.90
25170;DHT22;13129;48.012;10.352;2023-05-07T17:51:17;14.70;99.90
25170;DHT22;13129;48.012;10.352;2023-05-07T17:53:43;14.60;99.90
25170;DHT22;13129;48.012;10.352;2023-05-07T17:56:08;14.50;99.90
25170;DHT22;13129;48.012;10.352;2023-05-07T17:58:34;14.50;99.90
25170;DHT22;13129;48.012;10.352;2023-05-07T18:01:00;14.40;99.90
25170;DHT22;13129;48.012;10.352;2023-05-07T18:03:26;14.40;99.90
25170;DHT22;13129;48.012;10.352;2023-05-07T18:05:53;14.30;99.90
25170;DHT22;13129;48.012;10.352;2023-05-07T18:08:19;14.30;99.90
25170;DHT22;13129;48.012;10.352;2023-05-07T18:10:45;14.30;99.90
25170;DHT22;13129;48.012;10.352;2023-05-07T18:13:11;14.30;99.90
25170;DHT22;13129;48.012;10.352;2023-05-07T18:15:36;14.30;99.90
25170;DHT22;13129;48.012;10.352;2023-05-07T18:18:02;14.20;99.90
25170;DHT22;13129;48.012;10.352;2023-05-07T18:20:28;14.20;99.90
25170;DHT22;13129;48.012;10.352;2023-05-07T18:22:53;14.20;99.90
25170;DHT22;13129;48.012;10.352;2023-05-07T18:25:19;14.20;99.90
25170;DHT22;13129;48.012;10.352;2023-05-07T18:27:45;14.20;99.90
25170;DHT22;13129;48.012;10.352;2023-05-07T18:30:11;14.10;99.90
25170;DHT22;13129;48.012;10.352;2023-05-07T18:32:36;14.10;99.90
25170;DHT22;13129;48.012;10.352;2023-05-07T18:35:02;14.00;99.90
25170;DHT22;13129;48.012;10.352;2023-05-07T18:37:28;14.00;99.90
25170;DHT22;13129;48.012;10.352;2023-05-07T18:39:54;14.00;99.90
25170;DHT22;13129;48.012;10.352;2023-05-07T18:42:19;13.90;99.90
25170;DHT22;13129;48.012;10.352;2023-05-07T18:44:45;13.90;99.90
25170;DHT22;13129;48.012;10.352;2023-05-07T18:47:11;13.90;99.90
25170;DHT22;13129;48.012;10.352;2023-05-07T18:49:38;13.90;99.90
25170;DHT22;13129;48.012;10.352;2023-05-07T18:52:03;13.90;99.90
25170;DHT22;13129;48.012;10.352;2023-05-07T18:54:29;13.80;99.90
25170;DHT22;13129;48.012;10.352;2023-05-07T18:56:55;13.80;99.90
25170;DHT22;13129;48.012;10.352;2023-05-07T18:59:20;13.80;99.90
25170;DHT22;13129;48.012;10.352;2023-05-07T19:01:46;13.80;99.90
25170;DHT22;13129;48.012;10.352;2023-05-07T19:04:12;13.80;99.90
25170;DHT22;13129;48.012;10.352;2023-05-07T19:06:38;13.80;99.90
25170;DHT22;13129;48.012;10.352;2023-05-07T19:09:03;13.70;99.90
25170;DHT22;13129;48.012;10.352;2023-05-07T19:11:29;13.70;99.90
25170;DHT22;13129;48.012;10.352;2023-05-07T19:13:55;13.60;99.90
25170;DHT22;13129;48.012;10.352;2023-05-07T19:16:21;13.50;99.90
25170;DHT22;13129;48.012;10.352;2023-05-07T19:18:47;13.40;99.90
25170;DHT22;13129;48.012;10.352;2023-05-07T19:21:12;13.40;99.90
25170;DHT22;13129;48.012;10.352;2023-05-07T19:23:38;13.20;99.90
25170;DHT22;13129;48.012;10.352;2023-05-07T19:26:07;13.10;99.90
25170;DHT22;13129;48.012;10.352;2023-05-07T19:28:35;12.90;99.90
25170;DHT22;13129;48.012;10.352;2023-05-07T19:31:00;12.80;99.90
25170;DHT22;13129;48.012;10.352;2023-05-07T19:33:26;12.80;99.90
25170;DHT22;13129;48.012;10.352;2023-05-07T19:35:54;12.70;99.90
25170;DHT22;13129;48.012;10.352;2023-05-07T19:38:23;12.70;99.90
25170;DHT22;13129;48.012;10.352;2023-05-07T19:40:49;12.70;99.90
25170;DHT22;13129;48.012;10.352;2023-05-07T19:43:14;12.70;99.90
25170;DHT22;13129;48.012;10.352;2023-05-07T19:45:40;12.80;99.90
25170;DHT22;13129;48.012;10.352;2023-05-07T19:48:07;12.80;99.90
25170;DHT22;13129;48.012;10.352;2023-05-07T19:50:33;12.90;99.90
25170;DHT22;13129;48.012;10.352;2023-05-07T19:52:59;12.90;99.90
25170;DHT22;13129;48.012;10.352;2023-05-07T19:55:24;13.00;99.90
25170;DHT22;13129;48.012;10.352;2023-05-07T19:57:50;13.00;99.90
25170;DHT22;13129;48.012;10.352;2023-05-07T20:00:16;13.00;99.90
25170;DHT22;13129;48.012;10.352;2023-05-07T20:02:41;13.00;99.90
25170;DHT22;13129;48.012;10.352;2023-05-07T20:05:27;13.10;99.90
25170;DHT22;13129;48.012;10.352;2023-05-07T20:07:54;13.10;99.90
25170;DHT22;13129;48.012;10.352;2023-05-07T20:10:20;13.20;99.90
25170;DHT22;13129;48.012;10.352;2023-05-07T20:12:46;13.10;99.90
25170;DHT22;13129;48.012;10.352;2023-05-07T20:15:11;13.10;99.90
25170;DHT22;13129;48.012;10.352;2023-05-07T20:17:37;13.10;99.90
25170;DHT22;13129;48.012;10.352;2023-05-07T20:20:03;13.10;99.90
25170;DHT22;13129;48.012;10.352;2023-05-07T20:22:30;13.00;99.90
25170;DHT22;13129;48.012;10.352;2023-05-07T20:24:56;13.00;99.90
25170;DHT22;13129;48.012;10.352;2023-05-07T20:27:22;13.00;99.90
25170;DHT22;13129;48.012;10.352;2023-05-07T20:29:49;13.10;99.90
25170;DHT22;13129;48.012;10.352;2023-05-07T20:32:16;13.10;99.90
25170;DHT22;13129;48.012;10.352;2023-05-07T20:34:44;13.10;99.90
25170;DHT22;13129;48.012;10.352;2023-05-07T20:37:10;13.00;99.90
25170;DHT22;13129;48.012;10.352;2023-05-07T20:39:41;13.10;99.90
25170;DHT22;13129;48.012;10.352;2023-05-07T20:42:07;13.10;99.90
25170;DHT22;13129;48.012;10.352;2023-05-07T20:44:34;13.10;99.90
25170;DHT22;13129;48.012;10.352;2023-05-07T20:47:00;13.10;99.90
25170;DHT22;13129;48.012;10.352;2023-05-07T20:49:25;13.10;99.90
25170;DHT22;13129;48.012;10.352;2023-05-07T20:51:51;13.00;99.90
25170;DHT22;13129;48.012;10.352;2023-05-07T20:54:17;13.00;99.90
25170;DHT22;13129;48.012;10.352;2023-05-07T20:56:42;13.00;99.90
25170;DHT22;13129;48.012;10.352;2023-05-07T20:59:08;13.00;99.90
25170;DHT22;13129;48.012;10.352;2023-05-07T21:01:34;13.00;99.90
25170;DHT22;13129;48.012;10.352;2023-05-07T21:04:00;13.10;99.90
25170;DHT22;13129;48.012;10.352;2023-05-07T21:06:26;13.10;99.90
25170;DHT22;13129;48.012;10.352;2023-05-07T21:08:52;13.00;99.90
25170;DHT22;13129;48.012;10.352;2023-05-07T21:11:18;13.00;99.90
25170;DHT22;13129;48.012;10.352;2023-05-07T21:13:43;13.00;99.90
25170;DHT22;13129;48.012;10.352;2023-05-07T21:16:09;12.90;99.90
25170;DHT22;13129;48.012;10.352;2023-05-07T21:18:35;13.00;99.90
25170;DHT22;13129;48.012;10.352;2023-05-07T21:21:05;13.00;99.90
25170;DHT22;13129;48.012;10.352;2023-05-07T21:23:31;13.00;99.90
25170;DHT22;13129;48.012;10.352;2023-05-07T21:25:56;13.00;99.90
25170;DHT22;13129;48.012;10.352;2023-05-07T21:28:22;13.00;99.90
25170;DHT22;13129;48.012;10.352;2023-05-07T21:30:48;13.00;99.90
25170;DHT22;13129;48.012;10.352;2023-05-07T21:33:13;13.00;99.90
25170;DHT22;13129;48.012;10.352;2023-05-07T21:35:39;12.90;99.90
25170;DHT22;13129;48.012;10.352;2023-05-07T21:38:05;12.90;99.90
25170;DHT22;13129;48.012;10.352;2023-05-07T21:40:30;12.90;99.90
25170;DHT22;13129;48.012;10.352;2023-05-07T21:42:57;12.90;99.90
25170;DHT22;13129;48.012;10.352;2023-05-07T21:45:24;12.90;99.90
25170;DHT22;13129;48.012;10.352;2023-05-07T21:47:50;12.90;99.90
25170;DHT22;13129;48.012;10.352;2023-05-07T21:50:15;12.90;99.90
25170;DHT22;13129;48.012;10.352;2023-05-07T21:52:41;12.90;99.90
25170;DHT22;13129;48.012;10.352;2023-05-07T21:55:07;12.90;99.90
25170;DHT22;13129;48.012;10.352;2023-05-07T21:57:33;12.90;99.90
25170;DHT22;13129;48.012;10.352;2023-05-07T22:00:00;12.90;99.90
25170;DHT22;13129;48.012;10.352;2023-05-07T22:02:26;12.80;99.90
25170;DHT22;13129;48.012;10.352;2023-05-07T22:04:52;12.80;99.90
25170;DHT22;13129;48.012;10.352;2023-05-07T22:07:18;12.70;99.90
25170;DHT22;13129;48.012;10.352;2023-05-07T22:09:43;12.70;99.90
25170;DHT22;13129;48.012;10.352;2023-05-07T22:12:09;12.70;99.90
25170;DHT22;13129;48.012;10.352;2023-05-07T22:14:35;12.70;99.90
25170;DHT22;13129;48.012;10.352;2023-05-07T22:17:01;12.70;99.90
25170;DHT22;13129;48.012;10.352;2023-05-07T22:19:26;12.80;99.90
25170;DHT22;13129;48.012;10.352;2023-05-07T22:21:52;12.80;99.90
25170;DHT22;13129;48.012;10.352;2023-05-07T22:24:18;12.80;99.90
25170;DHT22;13129;48.012;10.352;2023-05-07T22:26:43;12.90;99.90
25170;DHT22;13129;48.012;10.352;2023-05-07T22:29:09;12.80;99.90
25170;DHT22;13129;48.012;10.352;2023-05-07T22:31:35;12.80;99.90
25170;DHT22;13129;48.012;10.352;2023-05-07T22:34:00;12.80;99.90
25170;DHT22;13129;48.012;10.352;2023-05-07T22:36:26;12.70;99.90
25170;DHT22;13129;48.012;10.352;2023-05-07T22:38:52;12.70;99.90
25170;DHT22;13129;48.012;10.352;2023-05-07T22:41:17;12.70;99.90
25170;DHT22;13129;48.012;10.352;2023-05-07T22:43:43;12.70;99.90
25170;DHT22;13129;48.012;10.352;2023-05-07T22:46:09;12.80;99.90
25170;DHT22;13129;48.012;10.352;2023-05-07T22:48:34;12.70;99.90
25170;DHT22;13129;48.012;10.352;2023-05-07T22:51:00;12.70;99.90
25170;DHT22;13129;48.012;10.352;2023-05-07T22:53:26;12.70;99.90
25170;DHT22;13129;48.012;10.352;2023-05-07T22:55:51;12.60;99.90
25170;DHT22;13129;48.012;10.352;2023-05-07T22:58:17;12.70;99.90
